sensor_id;sensor_type;location;lat;lon;timestamp;temperature;humidity
7942;HTU21D;4016;50.758;7.150;2023-08-24T00:03:03;17.66;118.99
7942;HTU21D;4016;50.758;7.150;2023-08-24T00:08:04;17.59;118.99
7942;HTU21D;4016;50.758;7.150;2023-08-24T00:13:05;17.51;118.99
7942;HTU21D;4016;50.758;7.150;2023-08-24T00:18:06;17.49;118.99
7942;HTU21D;4016;50.758;7.150;2023-08-24T00:23:06;17.40;118.99
7942;HTU21D;4016;50.758;7.150;2023-08-24T00:28:07;17.34;118.99
7942;HTU21D;4016;50.758;7.150;2023-08-24T00:33:07;17.34;118.99
7942;HTU21D;4016;50.758;7.150;2023-08-24T00:38:07;17.25;118.99
7942;HTU21D;4016;50.758;7.150;2023-08-24T00:43:08;17.21;118.99
7942;HTU21D;4016;50.758;7.150;2023-08-24T00:48:08;17.21;118.99
7942;HTU21D;4016;50.758;7.150;2023-08-24T00:53:09;17.17;118.99
7942;HTU21D;4016;50.758;7.150;2023-08-24T00:58:10;17.14;118.99
7942;HTU21D;4016;50.758;7.150;2023-08-24T01:03:10;17.08;118.99
7942;HTU21D;4016;50.758;7.150;2023-08-24T01:08:11;17.01;118.99
7942;HTU21D;4016;50.758;7.150;2023-08-24T01:13:17;16.96;118.99
7942;HTU21D;4016;50.758;7.150;2023-08-24T01:18:23;16.91;118.99
7942;HTU21D;4016;50.758;7.150;2023-08-24T01:23:37;16.86;118.99
7942;HTU21D;4016;50.758;7.150;2023-08-24T01:28:45;16.85;118.99
7942;HTU21D;4016;50.758;7.150;2023-08-24T01:33:46;16.81;118.99
7942;HTU21D;4016;50.758;7.150;2023-08-24T01:44:26;16.76;118.99
7942;HTU21D;4016;50.758;7.150;2023-08-24T01:49:29;16.72;118.99
7942;HTU21D;4016;50.758;7.150;2023-08-24T01:54:30;16.70;118.99
7942;HTU21D;4016;50.758;7.150;2023-08-24T01:59:31;16.72;118.99
7942;HTU21D;4016;50.758;7.150;2023-08-24T02:04:32;16.70;118.99
7942;HTU21D;4016;50.758;7.150;2023-08-24T02:09:32;16.63;118.99
7942;HTU21D;4016;50.758;7.150;2023-08-24T02:14:32;16.57;118.99
7942;HTU21D;4016;50.758;7.150;2023-08-24T02:19:33;16.55;118.99
7942;HTU21D;4016;50.758;7.150;2023-08-24T02:24:33;16.56;118.99
7942;HTU21D;4016;50.758;7.150;2023-08-24T02:29:34;16.59;118.99
7942;HTU21D;4016;50.758;7.150;2023-08-24T02:34:34;16.61;118.99
7942;HTU21D;4016;50.758;7.150;2023-08-24T02:39:34;16.63;118.99
7942;HTU21D;4016;50.758;7.150;2023-08-24T02:44:35;16.63;118.99
7942;HTU21D;4016;50.758;7.150;2023-08-24T02:49:35;16.72;118.99
7942;HTU21D;4016;50.758;7.150;2023-08-24T02:54:36;16.94;118.99
7942;HTU21D;4016;50.758;7.150;2023-08-24T02:59:36;16.93;118.99
7942;HTU21D;4016;50.758;7.150;2023-08-24T03:04:36;16.96;118.99
7942;HTU21D;4016;50.758;7.150;2023-08-24T03:09:37;17.00;118.99
7942;HTU21D;4016;50.758;7.150;2023-08-24T03:14:37;17.09;118.99
7942;HTU21D;4016;50.758;7.150;2023-08-24T03:19:37;17.17;118.99
7942;HTU21D;4016;50.758;7.150;2023-08-24T03:24:38;17.19;118.99
7942;HTU21D;4016;50.758;7.150;2023-08-24T03:29:38;17.20;118.99
7942;HTU21D;4016;50.758;7.150;2023-08-24T03:34:39;17.32;118.99
7942;HTU21D;4016;50.758;7.150;2023-08-24T03:39:40;17.36;118.99
7942;HTU21D;4016;50.758;7.150;2023-08-24T03:44:41;17.49;118.99
7942;HTU21D;4016;50.758;7.150;2023-08-24T03:49:43;17.50;118.99
7942;HTU21D;4016;50.758;7.150;2023-08-24T03:54:43;17.49;118.99
7942;HTU21D;4016;50.758;7.150;2023-08-24T03:59:43;17.61;118.99
7942;HTU21D;4016;50.758;7.150;2023-08-24T04:04:44;17.61;118.99
7942;HTU21D;4016;50.758;7.150;2023-08-24T04:09:44;17.60;118.99
7942;HTU21D;4016;50.758;7.150;2023-08-24T04:14:45;17.62;118.99
7942;HTU21D;4016;50.758;7.150;2023-08-24T04:19:46;17.62;118.99
7942;HTU21D;4016;50.758;7.150;2023-08-24T04:24:46;17.61;118.99
7942;HTU21D;4016;50.758;7.150;2023-08-24T04:29:47;17.64;118.99
7942;HTU21D;4016;50.758;7.150;2023-08-24T04:34:47;17.66;118.99
7942;HTU21D;4016;50.758;7.150;2023-08-24T04:39:47;17.72;118.99
7942;HTU21D;4016;50.758;7.150;2023-08-24T04:44:48;17.76;118.99
7942;HTU21D;4016;50.758;7.150;2023-08-24T04:49:48;17.78;118.99
7942;HTU21D;4016;50.758;7.150;2023-08-24T04:54:48;17.80;118.99
7942;HTU21D;4016;50.758;7.150;2023-08-24T04:59:49;17.80;118.99
7942;HTU21D;4016;50.758;7.150;2023-08-24T05:04:49;17.81;118.99
7942;HTU21D;4016;50.758;7.150;2023-08-24T05:09:49;17.89;118.99
7942;HTU21D;4016;50.758;7.150;2023-08-24T05:14:50;17.93;118.99
7942;HTU21D;4016;50.758;7.150;2023-08-24T05:19:51;18.02;118.99
7942;HTU21D;4016;50.758;7.150;2023-08-24T05:24:52;18.26;118.99
7942;HTU21D;4016;50.758;7.150;2023-08-24T05:29:52;18.25;118.99
7942;HTU21D;4016;50.758;7.150;2023-08-24T05:34:52;18.12;118.99
7942;HTU21D;4016;50.758;7.150;2023-08-24T05:39:53;18.46;118.99
7942;HTU21D;4016;50.758;7.150;2023-08-24T05:44:53;18.30;118.99
7942;HTU21D;4016;50.758;7.150;2023-08-24T05:49:54;18.23;118.99
7942;HTU21D;4016;50.758;7.150;2023-08-24T05:54:54;18.25;118.99
7942;HTU21D;4016;50.758;7.150;2023-08-24T05:59:55;18.37;118.99
7942;HTU21D;4016;50.758;7.150;2023-08-24T06:04:55;18.50;118.99
7942;HTU21D;4016;50.758;7.150;2023-08-24T06:09:58;18.57;118.99
7942;HTU21D;4016;50.758;7.150;2023-08-24T06:14:59;18.59;118.99
7942;HTU21D;4016;50.758;7.150;2023-08-24T06:20:05;18.64;118.99
7942;HTU21D;4016;50.758;7.150;2023-08-24T06:25:06;18.73;118.99
7942;HTU21D;4016;50.758;7.150;2023-08-24T06:30:09;18.81;118.99
7942;HTU21D;4016;50.758;7.150;2023-08-24T06:35:09;18.88;118.99
7942;HTU21D;4016;50.758;7.150;2023-08-24T06:40:10;18.99;118.99
7942;HTU21D;4016;50.758;7.150;2023-08-24T06:45:11;19.17;118.99
7942;HTU21D;4016;50.758;7.150;2023-08-24T06:50:11;19.46;118.99
7942;HTU21D;4016;50.758;7.150;2023-08-24T06:55:12;19.76;118.99
7942;HTU21D;4016;50.758;7.150;2023-08-24T07:00:13;20.05;118.99
7942;HTU21D;4016;50.758;7.150;2023-08-24T07:05:15;20.28;118.99
7942;HTU21D;4016;50.758;7.150;2023-08-24T07:10:19;20.54;118.99
7942;HTU21D;4016;50.758;7.150;2023-08-24T07:15:19;20.83;118.99
7942;HTU21D;4016;50.758;7.150;2023-08-24T07:20:20;21.27;118.99
7942;HTU21D;4016;50.758;7.150;2023-08-24T07:25:20;21.80;118.99
7942;HTU21D;4016;50.758;7.150;2023-08-24T07:30:21;22.26;118.99
7942;HTU21D;4016;50.758;7.150;2023-08-24T07:35:22;22.75;117.42
7942;HTU21D;4016;50.758;7.150;2023-08-24T07:40:25;23.16;111.91
7942;HTU21D;4016;50.758;7.150;2023-08-24T07:45:26;23.61;111.07
7942;HTU21D;4016;50.758;7.150;2023-08-24T07:50:26;23.99;107.29
7942;HTU21D;4016;50.758;7.150;2023-08-24T07:55:27;24.36;104.29
7942;HTU21D;4016;50.758;7.150;2023-08-24T08:00:27;24.88;99.52
7942;HTU21D;4016;50.758;7.150;2023-08-24T08:05:27;25.22;99.37
7942;HTU21D;4016;50.758;7.150;2023-08-24T08:10:28;25.68;96.21
7942;HTU21D;4016;50.758;7.150;2023-08-24T08:15:28;25.98;92.18
7942;HTU21D;4016;50.758;7.150;2023-08-24T08:20:29;26.31;90.86
7942;HTU21D;4016;50.758;7.150;2023-08-24T08:25:29;26.67;91.55
7942;HTU21D;4016;50.758;7.150;2023-08-24T08:30:29;27.07;85.97
7942;HTU21D;4016;50.758;7.150;2023-08-24T08:35:30;27.23;80.79
7942;HTU21D;4016;50.758;7.150;2023-08-24T08:40:30;27.50;83.81
7942;HTU21D;4016;50.758;7.150;2023-08-24T08:45:31;27.57;84.37
7942;HTU21D;4016;50.758;7.150;2023-08-24T08:50:32;27.86;84.26
7942;HTU21D;4016;50.758;7.150;2023-08-24T08:55:35;28.01;76.75
7942;HTU21D;4016;50.758;7.150;2023-08-24T09:00:36;28.20;79.66
7942;HTU21D;4016;50.758;7.150;2023-08-24T09:05:37;28.45;80.01
7942;HTU21D;4016;50.758;7.150;2023-08-24T09:10:38;28.54;78.59
7942;HTU21D;4016;50.758;7.150;2023-08-24T09:15:38;28.77;73.72
7942;HTU21D;4016;50.758;7.150;2023-08-24T09:20:39;28.70;73.22
7942;HTU21D;4016;50.758;7.150;2023-08-24T09:25:47;28.72;72.46
7942;HTU21D;4016;50.758;7.150;2023-08-24T09:30:55;28.86;71.26
7942;HTU21D;4016;50.758;7.150;2023-08-24T09:35:55;28.99;71.74
7942;HTU21D;4016;50.758;7.150;2023-08-24T09:41:01;29.04;68.69
7942;HTU21D;4016;50.758;7.150;2023-08-24T09:46:02;29.01;69.42
7942;HTU21D;4016;50.758;7.150;2023-08-24T09:51:04;28.90;71.03
7942;HTU21D;4016;50.758;7.150;2023-08-24T09:56:08;28.87;72.00
7942;HTU21D;4016;50.758;7.150;2023-08-24T10:01:09;29.15;72.09
7942;HTU21D;4016;50.758;7.150;2023-08-24T10:06:10;29.48;70.02
7942;HTU21D;4016;50.758;7.150;2023-08-24T10:11:17;29.41;62.03
7942;HTU21D;4016;50.758;7.150;2023-08-24T10:16:21;29.14;63.76
7942;HTU21D;4016;50.758;7.150;2023-08-24T10:21:23;29.02;63.78
7942;HTU21D;4016;50.758;7.150;2023-08-24T10:26:26;29.01;61.23
7942;HTU21D;4016;50.758;7.150;2023-08-24T10:31:28;29.00;62.24
7942;HTU21D;4016;50.758;7.150;2023-08-24T10:36:28;29.18;59.94
7942;HTU21D;4016;50.758;7.150;2023-08-24T10:41:30;29.22;63.13
7942;HTU21D;4016;50.758;7.150;2023-08-24T10:47:05;29.34;61.10
7942;HTU21D;4016;50.758;7.150;2023-08-24T10:52:31;29.34;61.18
7942;HTU21D;4016;50.758;7.150;2023-08-24T10:57:37;29.35;60.99
7942;HTU21D;4016;50.758;7.150;2023-08-24T11:02:45;29.31;59.21
7942;HTU21D;4016;50.758;7.150;2023-08-24T11:08:05;29.49;61.58
7942;HTU21D;4016;50.758;7.150;2023-08-24T11:18:25;29.57;58.95
7942;HTU21D;4016;50.758;7.150;2023-08-24T11:23:29;29.77;58.63
7942;HTU21D;4016;50.758;7.150;2023-08-24T11:28:30;29.83;59.29
7942;HTU21D;4016;50.758;7.150;2023-08-24T11:33:32;29.51;57.31
7942;HTU21D;4016;50.758;7.150;2023-08-24T11:38:40;29.36;56.34
7942;HTU21D;4016;50.758;7.150;2023-08-24T11:43:45;29.38;59.30
7942;HTU21D;4016;50.758;7.150;2023-08-24T11:48:46;29.44;59.60
7942;HTU21D;4016;50.758;7.150;2023-08-24T11:53:46;29.24;58.26
7942;HTU21D;4016;50.758;7.150;2023-08-24T11:58:48;29.13;58.83
7942;HTU21D;4016;50.758;7.150;2023-08-24T12:03:50;28.95;59.36
7942;HTU21D;4016;50.758;7.150;2023-08-24T12:08:52;28.92;65.98
7942;HTU21D;4016;50.758;7.150;2023-08-24T12:13:54;29.01;63.96
7942;HTU21D;4016;50.758;7.150;2023-08-24T12:18:57;29.07;67.41
7942;HTU21D;4016;50.758;7.150;2023-08-24T12:24:06;29.02;68.01
7942;HTU21D;4016;50.758;7.150;2023-08-24T12:29:08;28.87;67.47
7942;HTU21D;4016;50.758;7.150;2023-08-24T12:34:09;28.71;68.81
7942;HTU21D;4016;50.758;7.150;2023-08-24T12:39:11;28.58;66.30
7942;HTU21D;4016;50.758;7.150;2023-08-24T12:44:15;28.38;66.62
7942;HTU21D;4016;50.758;7.150;2023-08-24T12:49:15;28.05;71.51
7942;HTU21D;4016;50.758;7.150;2023-08-24T12:54:16;27.74;73.08
7942;HTU21D;4016;50.758;7.150;2023-08-24T12:59:16;27.56;75.12
7942;HTU21D;4016;50.758;7.150;2023-08-24T13:04:17;27.21;82.31
7942;HTU21D;4016;50.758;7.150;2023-08-24T13:09:17;26.86;85.69
7942;HTU21D;4016;50.758;7.150;2023-08-24T13:14:18;26.54;89.96
7942;HTU21D;4016;50.758;7.150;2023-08-24T13:19:18;26.26;93.66
7942;HTU21D;4016;50.758;7.150;2023-08-24T13:24:19;26.12;94.36
7942;HTU21D;4016;50.758;7.150;2023-08-24T13:29:19;26.12;96.62
7942;HTU21D;4016;50.758;7.150;2023-08-24T13:34:19;26.02;98.82
7942;HTU21D;4016;50.758;7.150;2023-08-24T13:39:20;25.89;98.49
7942;HTU21D;4016;50.758;7.150;2023-08-24T13:44:20;25.87;97.61
7942;HTU21D;4016;50.758;7.150;2023-08-24T13:49:21;25.66;100.63
7942;HTU21D;4016;50.758;7.150;2023-08-24T13:54:21;25.47;102.54
7942;HTU21D;4016;50.758;7.150;2023-08-24T13:59:22;25.40;105.20
7942;HTU21D;4016;50.758;7.150;2023-08-24T14:04:22;25.27;104.63
7942;HTU21D;4016;50.758;7.150;2023-08-24T14:09:23;25.48;101.77
7942;HTU21D;4016;50.758;7.150;2023-08-24T14:14:23;25.51;101.77
7942;HTU21D;4016;50.758;7.150;2023-08-24T14:19:24;25.44;102.57
7942;HTU21D;4016;50.758;7.150;2023-08-24T14:24:25;25.23;105.02
7942;HTU21D;4016;50.758;7.150;2023-08-24T14:29:25;25.15;106.16
7942;HTU21D;4016;50.758;7.150;2023-08-24T14:34:25;25.05;106.63
7942;HTU21D;4016;50.758;7.150;2023-08-24T14:39:26;24.99;106.57
7942;HTU21D;4016;50.758;7.150;2023-08-24T14:44:26;24.97;107.23
7942;HTU21D;4016;50.758;7.150;2023-08-24T14:49:27;24.80;106.85
7942;HTU21D;4016;50.758;7.150;2023-08-24T14:54:27;24.74;107.68
7942;HTU21D;4016;50.758;7.150;2023-08-24T14:59:27;24.62;108.62
7942;HTU21D;4016;50.758;7.150;2023-08-24T15:04:28;24.47;106.50
7942;HTU21D;4016;50.758;7.150;2023-08-24T15:09:28;24.39;110.05
7942;HTU21D;4016;50.758;7.150;2023-08-24T15:14:30;24.33;113.79
7942;HTU21D;4016;50.758;7.150;2023-08-24T15:19:34;24.20;116.03
7942;HTU21D;4016;50.758;7.150;2023-08-24T15:24:35;24.11;117.66
7942;HTU21D;4016;50.758;7.150;2023-08-24T15:29:35;24.02;118.99
7942;HTU21D;4016;50.758;7.150;2023-08-24T15:34:36;23.92;118.99
7942;HTU21D;4016;50.758;7.150;2023-08-24T15:39:37;23.83;118.99
7942;HTU21D;4016;50.758;7.150;2023-08-24T15:44:38;23.66;118.99
7942;HTU21D;4016;50.758;7.150;2023-08-24T15:49:38;23.46;118.99
7942;HTU21D;4016;50.758;7.150;2023-08-24T15:54:39;23.28;118.99
7942;HTU21D;4016;50.758;7.150;2023-08-24T15:59:39;22.97;118.99
7942;HTU21D;4016;50.758;7.150;2023-08-24T16:04:39;22.76;118.99
7942;HTU21D;4016;50.758;7.150;2023-08-24T16:09:40;22.63;118.99
7942;HTU21D;4016;50.758;7.150;2023-08-24T16:14:40;22.54;118.99
7942;HTU21D;4016;50.758;7.150;2023-08-24T16:19:43;22.44;118.99
7942;HTU21D;4016;50.758;7.150;2023-08-24T16:24:44;22.41;118.99
7942;HTU21D;4016;50.758;7.150;2023-08-24T16:29:44;22.34;118.99
7942;HTU21D;4016;50.758;7.150;2023-08-24T16:34:45;22.32;118.99
7942;HTU21D;4016;50.758;7.150;2023-08-24T16:39:45;22.25;118.99
7942;HTU21D;4016;50.758;7.150;2023-08-24T16:44:46;22.10;118.99
7942;HTU21D;4016;50.758;7.150;2023-08-24T16:49:47;21.84;118.99
7942;HTU21D;4016;50.758;7.150;2023-08-24T16:54:47;21.82;118.99
7942;HTU21D;4016;50.758;7.150;2023-08-24T16:59:48;21.82;118.99
7942;HTU21D;4016;50.758;7.150;2023-08-24T17:04:48;21.81;118.99
7942;HTU21D;4016;50.758;7.150;2023-08-24T17:09:49;21.89;118.99
7942;HTU21D;4016;50.758;7.150;2023-08-24T17:14:50;21.90;118.99
7942;HTU21D;4016;50.758;7.150;2023-08-24T17:19:50;21.81;118.99
7942;HTU21D;4016;50.758;7.150;2023-08-24T17:24:51;21.83;118.99
7942;HTU21D;4016;50.758;7.150;2023-08-24T17:29:51;21.76;118.99
7942;HTU21D;4016;50.758;7.150;2023-08-24T17:34:53;21.60;118.99
7942;HTU21D;4016;50.758;7.150;2023-08-24T17:39:53;21.39;118.99
7942;HTU21D;4016;50.758;7.150;2023-08-24T17:44:54;21.35;118.99
7942;HTU21D;4016;50.758;7.150;2023-08-24T17:49:54;21.39;118.99
7942;HTU21D;4016;50.758;7.150;2023-08-24T17:54:54;21.36;118.99
7942;HTU21D;4016;50.758;7.150;2023-08-24T17:59:55;21.49;118.99
7942;HTU21D;4016;50.758;7.150;2023-08-24T18:04:55;21.27;118.99
7942;HTU21D;4016;50.758;7.150;2023-08-24T18:09:55;21.25;118.99
7942;HTU21D;4016;50.758;7.150;2023-08-24T18:14:56;21.28;118.99
7942;HTU21D;4016;50.758;7.150;2023-08-24T18:19:56;21.35;118.99
7942;HTU21D;4016;50.758;7.150;2023-08-24T18:24:57;21.29;118.99
7942;HTU21D;4016;50.758;7.150;2023-08-24T18:29:57;21.22;118.99
7942;HTU21D;4016;50.758;7.150;2023-08-24T18:34:58;21.46;118.99
7942;HTU21D;4016;50.758;7.150;2023-08-24T18:39:58;21.20;118.99
7942;HTU21D;4016;50.758;7.150;2023-08-24T18:44:59;21.11;118.99
7942;HTU21D;4016;50.758;7.150;2023-08-24T18:49:59;21.13;118.99
7942;HTU21D;4016;50.758;7.150;2023-08-24T18:54:59;21.06;118.99
7942;HTU21D;4016;50.758;7.150;2023-08-24T19:00:00;20.91;118.99
7942;HTU21D;4016;50.758;7.150;2023-08-24T19:05:00;20.88;118.99
7942;HTU21D;4016;50.758;7.150;2023-08-24T19:10:01;20.80;118.99
7942;HTU21D;4016;50.758;7.150;2023-08-24T19:15:01;20.65;118.99
7942;HTU21D;4016;50.758;7.150;2023-08-24T19:20:01;20.56;118.99
7942;HTU21D;4016;50.758;7.150;2023-08-24T19:25:02;20.55;118.99
7942;HTU21D;4016;50.758;7.150;2023-08-24T19:30:06;20.44;118.99
7942;HTU21D;4016;50.758;7.150;2023-08-24T19:35:07;20.33;118.99
7942;HTU21D;4016;50.758;7.150;2023-08-24T19:40:08;20.21;118.99
7942;HTU21D;4016;50.758;7.150;2023-08-24T19:45:09;20.11;118.99
7942;HTU21D;4016;50.758;7.150;2023-08-24T19:50:09;20.12;118.99
7942;HTU21D;4016;50.758;7.150;2023-08-24T19:55:10;20.16;118.99
7942;HTU21D;4016;50.758;7.150;2023-08-24T20:00:10;19.95;118.99
7942;HTU21D;4016;50.758;7.150;2023-08-24T20:05:12;19.85;118.99
7942;HTU21D;4016;50.758;7.150;2023-08-24T20:10:13;19.73;118.99
7942;HTU21D;4016;50.758;7.150;2023-08-24T20:15:14;19.65;118.99
7942;HTU21D;4016;50.758;7.150;2023-08-24T20:20:16;19.62;118.99
7942;HTU21D;4016;50.758;7.150;2023-08-24T20:25:22;19.52;118.99
7942;HTU21D;4016;50.758;7.150;2023-08-24T20:30:23;19.40;118.99
7942;HTU21D;4016;50.758;7.150;2023-08-24T20:35:23;19.31;118.99
7942;HTU21D;4016;50.758;7.150;2023-08-24T20:40:23;19.28;118.99
7942;HTU21D;4016;50.758;7.150;2023-08-24T20:45:24;19.22;118.99
7942;HTU21D;4016;50.758;7.150;2023-08-24T20:50:24;19.13;118.99
7942;HTU21D;4016;50.758;7.150;2023-08-24T20:55:25;19.09;118.99
7942;HTU21D;4016;50.758;7.150;2023-08-24T21:00:25;19.06;118.99
7942;HTU21D;4016;50.758;7.150;2023-08-24T21:05:25;19.09;118.99
7942;HTU21D;4016;50.758;7.150;2023-08-24T21:10:26;19.00;118.99
7942;HTU21D;4016;50.758;7.150;2023-08-24T21:15:26;18.92;118.99
7942;HTU21D;4016;50.758;7.150;2023-08-24T21:20:27;18.85;118.99
7942;HTU21D;4016;50.758;7.150;2023-08-24T21:25:27;18.83;118.99
7942;HTU21D;4016;50.758;7.150;2023-08-24T21:30:28;18.86;118.99
7942;HTU21D;4016;50.758;7.150;2023-08-24T21:35:29;18.78;118.99
7942;HTU21D;4016;50.758;7.150;2023-08-24T21:40:29;18.74;118.99
7942;HTU21D;4016;50.758;7.150;2023-08-24T21:45:30;18.70;118.99
7942;HTU21D;4016;50.758;7.150;2023-08-24T21:50:30;18.58;118.99
7942;HTU21D;4016;50.758;7.150;2023-08-24T21:55:35;18.58;118.99
7942;HTU21D;4016;50.758;7.150;2023-08-24T22:00:36;18.56;118.99
7942;HTU21D;4016;50.758;7.150;2023-08-24T22:05:36;18.53;118.99
7942;HTU21D;4016;50.758;7.150;2023-08-24T22:10:37;18.52;118.99
7942;HTU21D;4016;50.758;7.150;2023-08-24T22:15:37;18.48;118.99
7942;HTU21D;4016;50.758;7.150;2023-08-24T22:20:38;18.46;118.99
7942;HTU21D;4016;50.758;7.150;2023-08-24T22:25:38;18.39;118.99
7942;HTU21D;4016;50.758;7.150;2023-08-24T22:30:40;18.30;118.99
7942;HTU21D;4016;50.758;7.150;2023-08-24T22:35:41;18.33;118.99
7942;HTU21D;4016;50.758;7.150;2023-08-24T22:40:41;18.28;118.99
7942;HTU21D;4016;50.758;7.150;2023-08-24T22:45:42;18.24;118.99
7942;HTU21D;4016;50.758;7.150;2023-08-24T22:50:42;18.23;118.99
7942;HTU21D;4016;50.758;7.150;2023-08-24T22:55:42;18.25;118.99
7942;HTU21D;4016;50.758;7.150;2023-08-24T23:00:43;18.27;118.99
7942;HTU21D;4016;50.758;7.150;2023-08-24T23:05:43;18.18;118.99
7942;HTU21D;4016;50.758;7.150;2023-08-24T23:10:44;18.13;118.99
7942;HTU21D;4016;50.758;7.150;2023-08-24T23:15:44;18.11;118.99
7942;HTU21D;4016;50.758;7.150;2023-08-24T23:20:44;18.11;118.99
7942;HTU21D;4016;50.758;7.150;2023-08-24T23:25:45;18.11;118.99
7942;HTU21D;4016;50.758;7.150;2023-08-24T23:30:45;18.10;118.99
7942;HTU21D;4016;50.758;7.150;2023-08-24T23:35:46;18.11;118.99
7942;HTU21D;4016;50.758;7.150;2023-08-24T23:40:46;18.05;118.99
7942;HTU21D;4016;50.758;7.150;2023-08-24T23:45:49;18.00;118.99
7942;HTU21D;4016;50.758;7.150;2023-08-24T23:50:49;17.99;118.99
7942;HTU21D;4016;50.758;7.150;2023-08-24T23:55:50;17.98;118.99
